GBSAM LOWS-LOWI

Flight info

Callsign GBSAM
Flight time 0h 32m
Altitude 12000
Route RTT
Aircraft B60T/L-V/N

Departure

Time 2026-05-04 13:25
Airport Salzburg Airport (LOWS)

Arrival

Time 2026-05-04 13:58
Airport Innsbruck Airport (LOWI)
Time Latitude Longitude Altitude Speed Heading
2026-05-04 13:08 47.79530 12.99784 1416 ft 0 kts 337°
2026-05-04 13:19 47.79550 12.99831 1416 ft 6 kts 79°
2026-05-04 13:19 47.79554 12.99915 1416 ft 13 kts 69°
2026-05-04 13:19 47.79561 12.99944 1416 ft 0 kts 73°
2026-05-04 13:20 47.79562 12.99950 1416 ft 4 kts 74°
2026-05-04 13:20 47.79505 13.00020 1417 ft 16 kts 160°
2026-05-04 13:21 47.79388 13.00093 1416 ft 17 kts 155°
2026-05-04 13:21 47.79250 13.00181 1416 ft 26 kts 158°
2026-05-04 13:21 47.79082 13.00286 1414 ft 25 kts 158°
2026-05-04 13:21 47.78950 13.00369 1413 ft 23 kts 157°
2026-05-04 13:22 47.78814 13.00453 1414 ft 13 kts 159°
2026-05-04 13:22 47.78756 13.00491 1414 ft 12 kts 158°
2026-05-04 13:22 47.78647 13.00561 1415 ft 19 kts 155°
2026-05-04 13:22 47.78588 13.00598 1416 ft 8 kts 161°
2026-05-04 13:23 47.78479 13.00665 1416 ft 17 kts 157°
2026-05-04 13:23 47.78378 13.00728 1416 ft 8 kts 154°
2026-05-04 13:23 47.78330 13.00764 1415 ft 11 kts 153°
2026-05-04 13:23 47.78236 13.00828 1415 ft 15 kts 145°
2026-05-04 13:24 47.78186 13.00915 1413 ft 4 kts 110°
2026-05-04 13:24 47.78186 13.00988 1415 ft 13 kts 70°
2026-05-04 13:24 47.78226 13.01073 1411 ft 13 kts 19°
2026-05-04 13:25 47.78932 13.00648 1468 ft 122 kts 340°
2026-05-04 13:25 47.79817 13.00143 2013 ft 147 kts 342°
2026-05-04 13:25 47.80829 12.99692 2714 ft 155 kts 351°
2026-05-04 13:25 47.81901 12.99423 3502 ft 154 kts 350°
2026-05-04 13:26 47.82821 12.98946 4360 ft 150 kts 324°
2026-05-04 13:26 47.83251 12.97590 5037 ft 166 kts 275°
2026-05-04 13:26 47.83396 12.95874 5603 ft 178 kts 287°
2026-05-04 13:26 47.83949 12.94203 6252 ft 183 kts 299°
2026-05-04 13:27 47.84527 12.92779 6764 ft 178 kts 298°
2026-05-04 13:27 47.85161 12.91166 7338 ft 171 kts 296°
2026-05-04 13:27 47.85746 12.89643 7873 ft 168 kts 296°
2026-05-04 13:27 47.86327 12.88145 8405 ft 166 kts 295°
2026-05-04 13:28 47.86903 12.86652 8920 ft 166 kts 295°
2026-05-04 13:28 47.87474 12.85168 9445 ft 165 kts 295°
2026-05-04 13:28 47.88003 12.83797 9938 ft 164 kts 294°
2026-05-04 13:28 47.88571 12.82325 10415 ft 163 kts 294°
2026-05-04 13:29 47.89129 12.80878 10895 ft 163 kts 294°
2026-05-04 13:29 47.89698 12.79397 11394 ft 162 kts 294°
2026-05-04 13:29 47.90245 12.77974 11877 ft 164 kts 294°
2026-05-04 13:29 47.90836 12.76408 11950 ft 188 kts 292°
2026-05-04 13:30 47.91060 12.74478 11956 ft 195 kts 256°
2026-05-04 13:30 47.90521 12.72742 11956 ft 198 kts 229°
2026-05-04 13:30 47.89599 12.71217 11945 ft 198 kts 226°
2026-05-04 13:30 47.88693 12.69707 11946 ft 199 kts 227°
2026-05-04 13:31 47.87738 12.68099 11940 ft 200 kts 227°
2026-05-04 13:31 47.86849 12.66603 11938 ft 201 kts 226°
2026-05-04 13:31 47.85924 12.65048 11932 ft 200 kts 227°
2026-05-04 13:31 47.85000 12.63496 11935 ft 200 kts 227°
2026-05-04 13:32 47.84077 12.61946 11937 ft 200 kts 227°
2026-05-04 13:32 47.83155 12.60399 11935 ft 199 kts 227°
2026-05-04 13:32 47.82230 12.58848 11939 ft 201 kts 227°
2026-05-04 13:32 47.81302 12.57290 11937 ft 201 kts 227°
2026-05-04 13:33 47.80370 12.55727 11938 ft 201 kts 227°
2026-05-04 13:33 47.79440 12.54168 11931 ft 200 kts 227°
2026-05-04 13:33 47.78519 12.52630 11922 ft 198 kts 227°
2026-05-04 13:33 47.77603 12.51097 11924 ft 198 kts 227°
2026-05-04 13:34 47.76689 12.49564 11932 ft 199 kts 227°
2026-05-04 13:34 47.75764 12.48015 11918 ft 202 kts 227°
2026-05-04 13:34 47.74829 12.46457 11920 ft 201 kts 227°
2026-05-04 13:34 47.73901 12.44909 11919 ft 200 kts 227°
2026-05-04 13:35 47.72975 12.43367 11922 ft 200 kts 227°
2026-05-04 13:35 47.71132 12.40291 11917 ft 199 kts 227°
2026-05-04 13:35 47.70220 12.38773 11915 ft 200 kts 227°
2026-05-04 13:36 47.69293 12.37236 11916 ft 201 kts 226°
2026-05-04 13:36 47.68349 12.35672 11912 ft 201 kts 227°
2026-05-04 13:36 47.67433 12.34122 11929 ft 200 kts 227°
2026-05-04 13:36 47.66502 12.32585 11928 ft 201 kts 227°
2026-05-04 13:37 47.65566 12.31041 11920 ft 201 kts 227°
2026-05-04 13:37 47.64953 12.30023 11924 ft 199 kts 227°
2026-05-04 13:37 47.64028 12.28485 11925 ft 200 kts 227°
2026-05-04 13:37 47.63101 12.26950 11920 ft 199 kts 227°
2026-05-04 13:38 47.62180 12.25424 11924 ft 198 kts 227°
2026-05-04 13:38 47.61263 12.23904 11919 ft 198 kts 227°
2026-05-04 13:38 47.60347 12.22388 11917 ft 196 kts 226°
2026-05-04 13:38 47.59436 12.20880 11932 ft 198 kts 227°
2026-05-04 13:39 47.58513 12.19356 11927 ft 199 kts 227°
2026-05-04 13:39 47.57595 12.17836 11931 ft 198 kts 226°
2026-05-04 13:39 47.56679 12.16327 11925 ft 199 kts 227°
2026-05-04 13:39 47.55759 12.14806 11924 ft 198 kts 227°
2026-05-04 13:40 47.54834 12.13281 11928 ft 199 kts 227°
2026-05-04 13:40 47.53905 12.11751 11927 ft 200 kts 227°
2026-05-04 13:40 47.52974 12.10216 11926 ft 200 kts 227°
2026-05-04 13:40 47.52043 12.08682 11928 ft 201 kts 227°
2026-05-04 13:41 47.51107 12.07143 11928 ft 201 kts 227°
2026-05-04 13:41 47.50172 12.05603 11936 ft 201 kts 227°
2026-05-04 13:41 47.49237 12.04067 11934 ft 201 kts 227°
2026-05-04 13:42 47.47364 12.00991 11937 ft 201 kts 227°
2026-05-04 13:42 47.46429 11.99457 11935 ft 200 kts 227°
2026-05-04 13:42 47.45497 11.97923 11934 ft 201 kts 227°
2026-05-04 13:42 47.44558 11.96388 11934 ft 201 kts 227°
2026-05-04 13:43 47.43625 11.94860 11935 ft 201 kts 229°
2026-05-04 13:43 47.42995 11.93029 11943 ft 204 kts 257°
2026-05-04 13:43 47.42792 11.90944 11950 ft 206 kts 259°
2026-05-04 13:43 47.42585 11.88852 11946 ft 207 kts 259°
2026-05-04 13:44 47.42374 11.86754 11946 ft 206 kts 259°
2026-05-04 13:44 47.42163 11.84669 11944 ft 206 kts 258°
2026-05-04 13:44 47.41954 11.82575 11946 ft 206 kts 258°
2026-05-04 13:44 47.41743 11.80489 11948 ft 205 kts 258°
2026-05-04 13:45 47.41534 11.78416 11946 ft 204 kts 258°
2026-05-04 13:45 47.41321 11.76331 11949 ft 206 kts 258°
2026-05-04 13:45 47.41108 11.74238 11952 ft 206 kts 258°
2026-05-04 13:45 47.40879 11.72157 11930 ft 198 kts 252°
2026-05-04 13:46 47.40340 11.70641 11460 ft 145 kts 226°
2026-05-04 13:46 47.39563 11.69813 10635 ft 139 kts 210°
2026-05-04 13:46 47.38723 11.69208 9844 ft 132 kts 204°
2026-05-04 13:46 47.37845 11.68677 8837 ft 138 kts 202°
2026-05-04 13:47 47.36905 11.68216 7788 ft 146 kts 194°
2026-05-04 13:47 47.35919 11.67942 6971 ft 138 kts 191°
2026-05-04 13:47 47.35026 11.67594 6101 ft 133 kts 194°
2026-05-04 13:47 47.34141 11.67147 5434 ft 136 kts 207°
2026-05-04 13:48 47.33327 11.66331 5151 ft 146 kts 217°
2026-05-04 13:48 47.32600 11.65260 4956 ft 149 kts 225°
2026-05-04 13:48 47.31999 11.64006 4895 ft 161 kts 241°
2026-05-04 13:48 47.31498 11.62424 5046 ft 172 kts 245°
2026-05-04 13:49 47.31042 11.60801 5147 ft 175 kts 242°
2026-05-04 13:49 47.30606 11.59149 5317 ft 173 kts 268°
2026-05-04 13:49 47.31223 11.57650 5147 ft 196 kts 334°
2026-05-04 13:49 47.32508 11.57547 5377 ft 183 kts 20°
2026-05-04 13:50 47.33463 11.58712 5825 ft 183 kts 69°
2026-05-04 13:50 47.33579 11.60569 5844 ft 186 kts 113°
2026-05-04 13:50 47.32818 11.61976 6003 ft 171 kts 157°
2026-05-04 13:50 47.31732 11.62110 5972 ft 155 kts 201°
2026-05-04 13:51 47.30911 11.61098 5759 ft 159 kts 230°
2026-05-04 13:51 47.30302 11.59816 5172 ft 147 kts 235°
2026-05-04 13:51 47.29782 11.58433 4502 ft 160 kts 243°
2026-05-04 13:51 47.29372 11.56928 4165 ft 157 kts 250°
2026-05-04 13:52 47.28784 11.53879 4124 ft 158 kts 251°
2026-05-04 13:52 47.28481 11.52306 4296 ft 162 kts 254°
2026-05-04 13:52 47.28212 11.50699 4368 ft 159 kts 256°
2026-05-04 13:53 47.27916 11.49162 4250 ft 149 kts 250°
2026-05-04 13:53 47.27592 11.47736 3882 ft 147 kts 248°
2026-05-04 13:53 47.27323 11.46331 3514 ft 138 kts 255°
2026-05-04 13:54 47.26809 11.43663 3253 ft 135 kts 248°
2026-05-04 13:54 47.26517 11.42337 3426 ft 134 kts 248°
2026-05-04 13:54 47.25930 11.39722 3432 ft 126 kts 250°
2026-05-04 13:55 47.25701 11.38455 3337 ft 131 kts 251°
2026-05-04 13:55 47.25120 11.35866 3186 ft 134 kts 250°
2026-05-04 13:55 47.24850 11.34579 3212 ft 126 kts 250°
2026-05-04 13:56 47.24682 11.33336 3134 ft 124 kts 258°
2026-05-04 13:56 47.24693 11.32019 3089 ft 134 kts 273°
2026-05-04 13:56 47.25606 11.29870 2940 ft 143 kts
2026-05-04 13:57 47.26221 11.30801 2687 ft 133 kts 96°
2026-05-04 13:57 47.25947 11.31897 2329 ft 111 kts 120°
2026-05-04 13:58 47.26017 11.34385 1902 ft 34 kts 83°
2026-05-04 13:58 47.26101 11.35159 1899 ft 21 kts 78°
2026-05-04 13:58 47.26051 11.35263 1895 ft 10 kts 176°
2026-05-04 13:59 47.25965 11.35280 1901 ft 11 kts 171°
2026-05-04 13:59 47.25929 11.35365 1901 ft 9 kts 76°